Time;durP1;ratioP1;P1;durP2;ratioP2;P2;SDS_P1;SDS_P2;PMS_P1;PMS_P2;Temp;Humidity;BMP_temperature;BMP_pressure;BME280_temperature;BME280_humidity;BME280_pressure;Samples;Min_cycle;Max_cycle;Signal;HPM_P1;HPM_P2
2022/05/27 00:00:32;;;;;;;2.45;1.77;;;;;;;17.19;65.59;96190.13;4982307;28;20235;-81
2022/05/27 00:02:59;;;;;;;1.60;1.50;;;;;;;17.22;65.34;96191.53;4989022;28;20265;-86
2022/05/27 00:05:25;;;;;;;2.33;1.90;;;;;;;17.26;65.03;96190.13;4986803;28;20647;-84
2022/05/27 00:07:52;;;;;;;2.05;1.70;;;;;;;17.27;65.02;96187.34;4987284;28;20259;-85
2022/05/27 00:10:18;;;;;;;1.80;1.70;;;;;;;17.26;64.73;96188.34;4985721;28;20651;-84
2022/05/27 00:12:45;;;;;;;2.53;1.55;;;;;;;17.28;64.48;96190.75;4987171;28;20240;-86
2022/05/27 00:15:12;;;;;;;2.58;1.50;;;;;;;17.29;63.95;96179.31;4987559;28;20676;-85
2022/05/27 00:17:39;;;;;;;1.98;1.77;;;;;;;17.31;63.79;96182.53;4986821;28;20616;-84
2022/05/27 00:20:07;;;;;;;1.58;1.33;;;;;;;17.28;63.98;96175.13;4988916;28;20263;-84
2022/05/27 00:22:33;;;;;;;1.98;1.55;;;;;;;17.28;63.80;96169.91;4985615;28;20235;-84
2022/05/27 00:25:00;;;;;;;1.85;1.67;;;;;;;17.30;63.88;96174.91;4990284;28;20202;-85
2022/05/27 00:27:26;;;;;;;2.15;1.70;;;;;;;17.34;63.52;96165.69;4985044;28;20212;-84
2022/05/27 00:29:52;;;;;;;2.55;1.45;;;;;;;17.30;63.63;96164.50;4989524;28;20201;-86
2022/05/27 00:32:21;;;;;;;3.55;1.63;;;;;;;17.21;64.42;96159.50;4987096;28;20224;-82
2022/05/27 00:34:47;;;;;;;2.45;1.65;;;;;;;17.20;64.37;96157.09;4988084;28;20228;-84
2022/05/27 00:37:14;;;;;;;1.67;1.58;;;;;;;17.20;64.10;96162.31;4986259;28;20623;-84
2022/05/27 00:39:41;;;;;;;1.67;1.45;;;;;;;17.14;64.21;96160.50;4988104;28;20244;-86
2022/05/27 00:42:09;;;;;;;1.52;1.42;;;;;;;17.16;64.37;96153.31;4985295;28;20216;-86
2022/05/27 00:44:36;;;;;;;1.95;1.50;;;;;;;17.19;64.07;96158.09;4987218;28;20207;-83
2022/05/27 00:47:08;;;;;;;2.88;1.40;;;;;;;17.17;64.26;96153.09;4988280;28;20197;-85
2022/05/27 00:49:46;;;;;;;1.73;1.63;;;;;;;17.15;64.22;96151.72;4994832;28;20753;-86
2022/05/27 00:52:17;;;;;;;2.42;1.50;;;;;;;17.09;64.76;96155.94;4986095;28;20208;-83
2022/05/27 00:54:45;;;;;;;3.83;1.55;;;;;;;17.03;64.82;96148.13;4996163;28;20222;-83
2022/05/27 00:57:16;;;;;;;1.85;1.40;;;;;;;16.94;65.55;96155.34;4987042;28;20615;-86
2022/05/27 00:59:46;;;;;;;1.88;1.40;;;;;;;16.90;65.36;96154.16;4991700;28;20251;-86
2022/05/27 01:02:13;;;;;;;2.60;1.45;;;;;;;16.79;66.08;96150.34;4988870;28;20242;-85
2022/05/27 01:04:41;;;;;;;2.33;1.30;;;;;;;16.74;65.91;96152.75;4981651;28;20263;-84
2022/05/27 01:07:08;;;;;;;1.10;1.10;;;;;;;16.64;66.07;96152.38;4988990;28;20667;-84
2022/05/27 01:09:37;;;;;;;1.60;1.50;;;;;;;16.60;65.64;96158.94;4994776;28;20227;-85
2022/05/27 01:12:21;;;;;;;1.63;1.38;;;;;;;16.45;66.64;96156.53;4984275;28;20204;-86
2022/05/27 01:15:10;;;;;;;1.98;1.55;;;;;;;16.41;66.83;96157.13;4983420;28;20236;-86
2022/05/27 01:17:46;;;;;;;1.83;1.52;;;;;;;16.43;66.40;96162.91;4988738;28;20619;-84
2022/05/27 01:20:22;;;;;;;1.63;1.50;;;;;;;16.48;66.23;96160.53;4985406;28;20249;-84
2022/05/27 01:23:23;;;;;;;1.65;1.48;;;;;;;16.48;66.28;96156.13;4994403;28;20231;-84
2022/05/27 01:26:23;;;;;;;2.63;1.40;;;;;;;16.49;66.24;96154.34;4989228;28;20208;-85
2022/05/27 01:28:53;;;;;;;1.55;1.45;;;;;;;16.44;66.44;96154.13;4989068;28;20653;-85
2022/05/27 01:31:28;;;;;;;2.28;1.50;;;;;;;16.41;66.46;96155.31;4988172;28;20198;-85
2022/05/27 01:34:05;;;;;;;1.58;1.48;;;;;;;16.40;66.42;96150.31;4989159;28;20227;-85
2022/05/27 01:36:39;;;;;;;2.15;1.30;;;;;;;16.32;66.38;96155.72;4983723;28;20215;-82
2022/05/27 01:39:11;;;;;;;2.63;1.60;;;;;;;16.24;66.36;96159.28;4966968;28;20203;-84
2022/05/27 01:41:46;;;;;;;3.80;1.50;;;;;;;16.29;66.34;96148.31;4980604;28;20224;-83
2022/05/27 01:44:19;;;;;;;1.35;1.20;;;;;;;16.33;66.14;96147.72;4987525;28;20241;-84
2022/05/27 01:46:48;;;;;;;1.80;1.30;;;;;;;16.35;65.74;96140.53;4984985;28;20281;-83
2022/05/27 01:49:22;;;;;;;2.13;1.55;;;;;;;16.35;65.86;96150.94;4976551;28;20200;-85
2022/05/27 01:51:56;;;;;;;3.40;1.52;;;;;;;16.37;65.81;96145.50;4983310;28;20215;-85
2022/05/27 01:54:28;;;;;;;1.85;1.50;;;;;;;16.35;66.20;96140.53;4990698;28;20262;-84
2022/05/27 01:57:00;;;;;;;1.50;1.40;;;;;;;16.31;66.11;96141.94;4983575;28;20207;-84
2022/05/27 01:59:31;;;;;;;1.55;1.42;;;;;;;16.34;65.61;96141.53;4991158;28;20203;-83
2022/05/27 02:02:04;;;;;;;1.83;1.52;;;;;;;16.34;65.87;96145.94;4984565;28;20379;-84
2022/05/27 02:04:36;;;;;;;1.60;1.50;;;;;;;16.39;65.93;96143.50;4977666;28;20274;-83
2022/05/27 02:07:07;;;;;;;1.83;1.60;;;;;;;16.38;65.93;96152.31;4985657;28;20629;-84
2022/05/27 02:09:41;;;;;;;1.40;1.30;;;;;;;16.38;66.03;96144.50;4979835;28;20208;-84
2022/05/27 02:12:14;;;;;;;2.03;1.40;;;;;;;16.36;65.86;96147.31;4975900;28;20227;-86
2022/05/27 02:14:45;;;;;;;4.68;1.60;;;;;;;16.38;65.67;96145.31;4975837;28;20695;-82
2022/05/27 02:17:17;;;;;;;1.85;1.30;;;;;;;16.32;65.63;96151.31;4987533;28;20204;-84
2022/05/27 02:19:50;;;;;;;1.42;1.23;;;;;;;16.35;65.68;96147.53;4981771;28;20204;-86
2022/05/27 02:22:22;;;;;;;2.67;1.52;;;;;;;16.36;65.55;96146.50;4985707;28;20202;-83
2022/05/27 02:24:53;;;;;;;1.50;1.40;;;;;;;16.30;65.55;96144.72;4990684;28;20204;-85
2022/05/27 02:27:24;;;;;;;2.10;1.90;;;;;;;16.30;65.62;96149.91;4987613;28;20253;-86
2022/05/27 02:29:54;;;;;;;2.47;1.60;;;;;;;16.26;65.65;96143.50;4990782;28;20200;-85
2022/05/27 02:32:28;;;;;;;3.67;1.90;;;;;;;16.29;65.57;96149.13;4986053;28;20195;-85
2022/05/27 02:35:07;;;;;;;4.00;2.00;;;;;;;16.20;66.70;96156.28;4990712;28;20204;-85
2022/05/27 02:37:36;;;;;;;8.10;2.15;;;;;;;16.17;66.49;96154.06;4981748;28;20206;-84
2022/05/27 02:40:06;;;;;;;3.30;1.70;;;;;;;16.11;66.85;96159.28;4986600;28;20204;-83
2022/05/27 02:42:37;;;;;;;4.10;2.05;;;;;;;16.12;66.59;96158.28;4988860;28;20227;-84
2022/05/27 02:45:17;;;;;;;4.00;1.65;;;;;;;16.09;66.85;96158.66;4982119;28;20195;-84
2022/05/27 02:47:53;;;;;;;2.35;1.20;;;;;;;16.09;66.85;96158.66;4981909;28;20204;-84
2022/05/27 02:50:28;;;;;;;1.55;1.30;;;;;;;16.12;66.63;96145.28;4986630;28;20278;-86
2022/05/27 02:53:02;;;;;;;1.90;1.58;;;;;;;16.13;66.51;96155.50;4987288;28;20246;-83
2022/05/27 02:55:40;;;;;;;1.42;1.33;;;;;;;16.17;66.45;96146.28;4986568;28;20233;-84
2022/05/27 02:58:07;;;;;;;1.77;1.35;;;;;;;16.18;66.46;96152.28;4983084;28;20199;-83
2022/05/27 03:00:36;;;;;;;2.70;1.23;;;;;;;16.20;66.33;96147.69;4977947;28;20716;-84
2022/05/27 03:03:04;;;;;;;1.52;1.40;;;;;;;16.20;66.14;96145.88;4969374;28;20231;-83
2022/05/27 03:05:37;;;;;;;2.05;1.40;;;;;;;16.27;66.55;96155.50;4975388;28;20212;-83
2022/05/27 03:08:13;;;;;;;1.48;1.38;;;;;;;16.27;66.36;96150.31;4975102;28;20628;-84
2022/05/27 03:10:53;;;;;;;2.00;1.60;;;;;;;16.22;66.65;96143.91;4974417;28;20197;-84
2022/05/27 03:13:38;;;;;;;2.10;1.40;;;;;;;16.22;67.02;96146.50;4985767;28;20227;-85
2022/05/27 03:16:14;;;;;;;2.00;1.60;;;;;;;16.28;66.73;96139.72;4983399;28;20703;-84
2022/05/27 03:18:58;;;;;;;2.35;1.40;;;;;;;16.34;66.55;96143.34;4991115;28;20249;-85
2022/05/27 03:21:33;;;;;;;2.75;1.60;;;;;;;16.40;66.10;96143.31;4977723;28;20220;-84
2022/05/27 03:24:19;;;;;;;2.65;1.60;;;;;;;16.44;66.22;96141.94;4991346;28;20297;-84
2022/05/27 03:26:59;;;;;;;1.55;1.30;;;;;;;16.40;66.88;96135.53;4983976;28;20200;-83
2022/05/27 03:29:31;;;;;;;1.50;1.40;;;;;;;16.43;66.35;96144.72;4989973;28;20196;-85
2022/05/27 03:32:03;;;;;;;2.33;1.25;;;;;;;16.46;65.90;96147.72;4985636;28;20258;-83
2022/05/27 03:34:35;;;;;;;1.60;1.50;;;;;;;16.42;66.71;96143.91;4990295;28;20228;-85
2022/05/27 03:37:08;;;;;;;3.17;1.33;;;;;;;16.44;66.63;96144.53;4990623;28;20792;-85
2022/05/27 03:39:41;;;;;;;4.45;1.80;;;;;;;16.46;66.60;96139.94;4992335;28;20204;-84
2022/05/27 03:42:10;;;;;;;1.58;1.45;;;;;;;16.44;66.76;96144.53;4977866;28;20259;-85
2022/05/27 03:44:37;;;;;;;2.00;1.50;;;;;;;16.47;66.90;96148.53;4978215;28;20200;-83
2022/05/27 03:47:04;;;;;;;1.50;1.40;;;;;;;16.49;66.52;96143.94;4978725;28;20196;-83
2022/05/27 03:49:32;;;;;;;1.50;1.40;;;;;;;16.54;66.32;96144.94;4982978;28;20231;-83
2022/05/27 03:52:03;;;;;;;2.17;1.45;;;;;;;16.57;66.42;96144.53;4978390;28;20199;-85
2022/05/27 03:54:31;;;;;;;1.50;1.30;;;;;;;16.62;66.48;96151.72;4989312;28;20227;-84
2022/05/27 03:56:58;;;;;;;1.77;1.60;;;;;;;16.66;66.50;96152.97;4989810;28;20200;-85
2022/05/27 03:59:24;;;;;;;2.13;1.27;;;;;;;16.63;66.57;96148.16;4982078;28;20664;-82
2022/05/27 04:01:53;;;;;;;2.85;1.38;;;;;;;16.60;67.16;96143.31;4985644;28;20227;-86
2022/05/27 04:04:23;;;;;;;1.83;1.60;;;;;;;16.66;66.98;96152.16;4981385;28;20223;-84
2022/05/27 04:06:51;;;;;;;4.03;1.42;;;;;;;16.61;67.15;96159.72;4984801;28;20664;-85
2022/05/27 04:09:19;;;;;;;2.47;1.73;;;;;;;16.64;67.01;96149.75;4981321;28;20200;-85
2022/05/27 04:11:46;;;;;;;1.40;1.30;;;;;;;16.66;66.99;96165.97;4982273;28;20247;-86
2022/05/27 04:14:13;;;;;;;3.10;1.60;;;;;;;16.71;66.91;96158.38;4986818;28;20227;-84
2022/05/27 04:16:40;;;;;;;1.85;1.55;;;;;;;16.70;66.90;96155.97;4990927;28;20232;-85
2022/05/27 04:19:06;;;;;;;3.35;1.50;;;;;;;16.72;66.98;96151.38;4987544;28;20609;-84
2022/05/27 04:21:33;;;;;;;1.45;1.35;;;;;;;16.71;67.30;96147.97;4983190;28;20228;-82
2022/05/27 04:24:01;;;;;;;2.45;1.50;;;;;;;16.72;67.22;96152.19;4986975;28;20719;-84
2022/05/27 04:26:28;;;;;;;2.53;1.58;;;;;;;16.68;67.35;96145.78;4983948;28;20635;-84
2022/05/27 04:28:55;;;;;;;1.60;1.50;;;;;;;16.71;67.26;96152.38;4986119;28;20204;-84
2022/05/27 04:31:21;;;;;;;2.97;1.60;;;;;;;16.69;67.59;96143.97;4988662;28;20195;-83
2022/05/27 04:33:48;;;;;;;3.33;1.48;;;;;;;16.77;67.07;96143.75;4993198;28;20235;-83
2022/05/27 04:36:15;;;;;;;4.13;3.33;;;;;;;16.83;66.79;96135.94;4984971;28;20207;-84
2022/05/27 04:38:42;;;;;;;3.47;2.20;;;;;;;16.90;66.45;96141.16;4969315;28;20291;-81
2022/05/27 04:41:10;;;;;;;3.80;1.75;;;;;;;16.95;66.62;96138.72;4967605;28;20274;-85
2022/05/27 04:43:37;;;;;;;2.45;1.30;;;;;;;17.01;66.23;96139.72;4971013;28;20245;-83
2022/05/27 04:46:04;;;;;;;2.72;1.40;;;;;;;16.96;65.77;96148.13;4976896;28;20208;-84
2022/05/27 04:48:31;;;;;;;2.38;1.42;;;;;;;16.97;66.25;96136.72;4972859;28;20214;-82
2022/05/27 04:50:58;;;;;;;5.13;1.58;;;;;;;16.96;66.39;96140.31;4982431;28;20211;-85
2022/05/27 04:53:25;;;;;;;2.03;1.73;;;;;;;17.01;66.60;96143.13;4975359;28;20632;-81
2022/05/27 04:55:51;;;;;;;4.22;1.50;;;;;;;16.87;66.04;96136.34;4975261;28;20204;-84
2022/05/27 04:58:19;;;;;;;2.50;1.60;;;;;;;16.90;66.29;96133.34;4985078;28;20421;-85
2022/05/27 05:00:47;;;;;;;1.77;1.52;;;;;;;16.90;66.28;96135.97;4987881;28;20668;-84
2022/05/27 05:03:15;;;;;;;5.65;1.73;;;;;;;16.99;65.90;96133.94;4973047;28;20654;-85
2022/05/27 05:05:41;;;;;;;2.03;1.60;;;;;;;17.04;66.02;96136.72;4975134;28;20215;-83
2022/05/27 05:08:14;;;;;;;1.98;1.60;;;;;;;17.07;65.76;96136.31;4975373;28;20258;-84
2022/05/27 05:10:40;;;;;;;2.17;1.40;;;;;;;17.16;65.49;96129.88;4974287;28;20262;-82
2022/05/27 05:13:07;;;;;;;1.42;1.33;;;;;;;17.20;65.84;96141.50;4973927;28;20235;-83
2022/05/27 05:15:35;;;;;;;2.90;1.25;;;;;;;17.17;65.23;96129.69;4974912;28;20207;-84
2022/05/27 05:18:01;;;;;;;3.20;1.65;;;;;;;17.16;65.62;96129.88;4974598;28;20212;-84
2022/05/27 05:20:32;;;;;;;3.50;1.92;;;;;;;17.21;65.28;96119.66;4974665;28;20212;-83
2022/05/27 05:23:00;;;;;;;1.52;1.42;;;;;;;17.19;65.26;96111.25;4974344;28;20287;-83
2022/05/27 05:25:28;;;;;;;2.92;1.83;;;;;;;17.23;66.14;96118.47;4974372;28;20218;-82
2022/05/27 05:27:54;;;;;;;1.95;1.63;;;;;;;17.25;65.10;96115.66;4974941;28;20207;-83
2022/05/27 05:30:24;;;;;;;2.55;1.70;;;;;;;17.38;64.86;96110.41;4974729;28;20212;-83
2022/05/27 05:32:51;;;;;;;1.77;1.67;;;;;;;17.47;64.63;96117.00;4974695;28;20268;-85
2022/05/27 05:35:18;;;;;;;2.25;1.58;;;;;;;17.61;64.38;96126.34;4974859;28;20664;-85
2022/05/27 05:37:45;;;;;;;1.70;1.60;;;;;;;17.53;64.14;96126.56;4974490;28;20632;-83
2022/05/27 05:40:14;;;;;;;2.10;1.40;;;;;;;17.49;64.17;96127.22;4975115;28;20553;-84
2022/05/27 05:42:41;;;;;;;2.03;1.20;;;;;;;17.55;64.50;96121.16;4973373;28;20240;-82
2022/05/27 05:45:11;;;;;;;2.20;1.73;;;;;;;17.55;64.03;96123.75;4974425;28;20204;-83
2022/05/27 05:47:38;;;;;;;2.78;1.52;;;;;;;17.51;63.82;96123.38;4974324;28;20204;-84
2022/05/27 05:50:07;;;;;;;1.60;1.50;;;;;;;17.65;64.16;96128.56;4974424;28;20200;-84
2022/05/27 05:52:33;;;;;;;3.08;1.30;;;;;;;17.62;64.08;96129.75;4973720;28;20671;-83
2022/05/27 05:55:00;;;;;;;1.83;1.60;;;;;;;17.77;64.12;96127.69;4974343;28;20675;-84
2022/05/27 05:57:26;;;;;;;2.42;1.50;;;;;;;17.75;63.66;96123.69;4974403;28;20208;-84
2022/05/27 05:59:52;;;;;;;1.65;1.50;;;;;;;17.77;63.53;96117.28;4974065;28;20751;-85
2022/05/27 06:02:19;;;;;;;1.60;1.50;;;;;;;17.86;63.44;96123.06;4973731;28;20232;-84
2022/05/27 06:04:46;;;;;;;3.10;1.42;;;;;;;17.90;63.14;96124.22;4971746;28;20236;-85
2022/05/27 06:07:15;;;;;;;1.83;1.33;;;;;;;17.97;63.33;96119.78;4971443;28;20861;-85
2022/05/27 06:09:41;;;;;;;1.90;1.40;;;;;;;18.16;62.71;96113.66;4974995;28;20291;-85
2022/05/27 06:12:08;;;;;;;2.42;1.52;;;;;;;18.28;62.12;96111.94;4973794;28;20204;-84
2022/05/27 06:14:36;;;;;;;1.45;1.35;;;;;;;18.27;61.49;96115.59;4974579;28;20208;-85
2022/05/27 06:17:03;;;;;;;2.75;1.85;;;;;;;18.39;61.54;96112.28;4971768;28;20251;-85
2022/05/27 06:19:29;;;;;;;1.95;1.73;;;;;;;18.40;60.96;96119.09;4972471;28;20747;-84
2022/05/27 06:21:56;;;;;;;3.63;3.20;;;;;;;18.51;61.30;96113.19;4972465;28;20216;-85
2022/05/27 06:24:23;;;;;;;1.90;1.42;;;;;;;18.50;60.43;96109.00;4971320;28;20239;-84
2022/05/27 06:26:50;;;;;;;1.35;1.23;;;;;;;18.48;60.20;96108.41;4977191;28;20204;-83
2022/05/27 06:34:44;;;;;;;2.33;1.30;;;;;;;18.55;60.14;96107.34;4978065;28;20431;-85
2022/05/27 06:37:14;;;;;;;2.40;1.30;;;;;;;18.68;60.20;96108.25;4980580;28;20227;-83
2022/05/27 06:39:43;;;;;;;1.60;1.20;;;;;;;18.76;60.46;96111.41;4983662;28;20690;-85
2022/05/27 06:42:12;;;;;;;2.50;1.60;;;;;;;18.84;60.17;96113.75;4977751;28;20224;-84
2022/05/27 06:44:39;;;;;;;1.83;1.33;;;;;;;18.88;59.13;96101.84;4977718;28;20204;-82
2022/05/27 06:47:06;;;;;;;1.27;1.17;;;;;;;18.90;59.40;96106.88;4984040;28;20207;-84
2022/05/27 06:49:33;;;;;;;3.40;1.45;;;;;;;18.95;59.38;96107.81;4977169;28;20200;-83
2022/05/27 06:52:00;;;;;;;1.33;1.23;;;;;;;19.10;59.28;96104.06;4972777;28;20199;-82
2022/05/27 06:54:27;;;;;;;1.77;1.20;;;;;;;19.22;58.85;96100.53;4972908;28;20929;-84
2022/05/27 06:56:55;;;;;;;1.58;1.20;;;;;;;19.26;58.64;96098.25;4972915;28;20220;-85
2022/05/27 06:59:23;;;;;;;1.08;1.08;;;;;;;19.11;58.01;96106.44;4972917;28;20223;-85
2022/05/27 07:01:50;;;;;;;1.40;1.30;;;;;;;19.12;58.58;96092.38;4973089;28;20239;-84
2022/05/27 07:04:17;;;;;;;1.40;1.30;;;;;;;19.14;59.18;96087.75;4973182;28;20224;-83
2022/05/27 07:06:46;;;;;;;1.70;1.30;;;;;;;19.20;58.93;96086.09;4973942;28;20926;-84
2022/05/27 07:09:16;;;;;;;1.20;1.10;;;;;;;19.16;58.05;96092.75;4976014;28;20234;-83
2022/05/27 07:11:45;;;;;;;2.03;1.38;;;;;;;19.21;58.01;96092.91;4978048;28;20208;-82
2022/05/27 07:14:13;;;;;;;2.10;1.17;;;;;;;19.21;57.99;96091.09;4976641;28;20240;-83
2022/05/27 07:16:41;;;;;;;2.03;1.27;;;;;;;19.25;57.35;96089.63;4976558;28;20208;-84
2022/05/27 07:19:07;;;;;;;1.45;1.30;;;;;;;19.25;56.76;96081.00;4976295;28;20204;-85
2022/05/27 07:21:39;;;;;;;3.88;1.50;;;;;;;19.32;57.11;96071.28;4977046;28;20294;-82
2022/05/27 07:24:06;;;;;;;2.25;1.30;;;;;;;19.28;57.09;96073.53;4976623;28;20242;-85
2022/05/27 07:26:32;;;;;;;1.95;1.40;;;;;;;19.27;57.59;96073.75;4976623;28;20211;-84
2022/05/27 07:28:59;;;;;;;2.35;1.48;;;;;;;19.25;57.39;96075.78;4977090;28;20204;-87
2022/05/27 07:31:29;;;;;;;2.10;1.50;;;;;;;19.32;57.54;96071.28;4976205;28;20271;-86
2022/05/27 07:33:56;;;;;;;3.72;1.50;;;;;;;19.36;57.65;96077.66;4976346;28;20236;-87
2022/05/27 07:36:25;;;;;;;1.42;1.20;;;;;;;19.54;57.41;96072.44;4976399;28;20303;-87
2022/05/27 07:38:52;;;;;;;2.92;2.13;;;;;;;19.67;57.67;96067.03;4976967;28;20219;-86
2022/05/27 07:41:20;;;;;;;2.25;1.13;;;;;;;19.81;56.74;96070.28;4975916;28;20208;-86
2022/05/27 07:43:47;;;;;;;1.77;1.27;;;;;;;19.99;56.46;96058.97;4975671;28;20239;-87
2022/05/27 07:46:15;;;;;;;2.15;1.30;;;;;;;20.00;55.28;96064.00;4977353;28;20697;-87
2022/05/27 07:48:43;;;;;;;2.13;1.30;;;;;;;20.04;54.81;96061.69;4977190;28;20200;-86
2022/05/27 07:51:10;;;;;;;1.42;1.33;;;;;;;20.11;55.15;96064.22;4976685;28;20219;-87
2022/05/27 07:53:38;;;;;;;1.58;1.20;;;;;;;20.20;54.77;96058.47;4974104;28;20259;-86
2022/05/27 07:56:05;;;;;;;1.60;1.10;;;;;;;20.35;55.14;96061.44;4979924;28;20682;-87
2022/05/27 07:58:31;;;;;;;1.83;1.35;;;;;;;20.30;54.03;96052.66;4986972;28;20207;-86
2022/05/27 08:00:58;;;;;;;1.63;1.25;;;;;;;20.38;54.40;96054.19;4981587;28;20675;-87
2022/05/27 08:03:24;;;;;;;1.60;1.30;;;;;;;20.47;53.76;96053.63;4982584;28;20715;-87
2022/05/27 08:05:53;;;;;;;2.90;1.33;;;;;;;20.54;54.08;96048.28;4978853;28;20208;-87
2022/05/27 08:08:20;;;;;;;3.63;1.35;;;;;;;20.55;53.65;96048.06;4988355;28;20223;-86
2022/05/27 08:10:47;;;;;;;1.20;1.15;;;;;;;20.46;54.59;96044.19;4976497;28;20204;-87
2022/05/27 08:13:13;;;;;;;1.40;1.20;;;;;;;20.63;54.07;96047.69;4983063;28;20248;-88
2022/05/27 08:15:40;;;;;;;2.90;1.40;;;;;;;20.87;53.68;96048.50;4987307;28;20205;-86
2022/05/27 08:18:07;;;;;;;3.17;1.42;;;;;;;20.86;53.64;96046.91;4987595;28;20196;-86
2022/05/27 08:20:35;;;;;;;2.88;1.50;;;;;;;20.98;53.24;96050.28;4988947;28;20576;-87
2022/05/27 08:23:04;;;;;;;1.45;1.15;;;;;;;21.09;52.58;96053.13;4987083;28;20227;-86
2022/05/27 08:25:31;;;;;;;1.95;1.50;;;;;;;21.21;52.48;96044.25;4989912;28;20288;-86
2022/05/27 08:27:58;;;;;;;4.28;2.35;;;;;;;21.11;52.70;96040.59;4985748;28;20211;-86
2022/05/27 08:30:28;;;;;;;1.85;1.65;;;;;;;21.03;53.33;96042.53;4990952;28;20208;-88
2022/05/27 08:32:54;;;;;;;1.85;1.30;;;;;;;21.12;53.22;96034.34;4985599;28;20380;-86
2022/05/27 08:38:09;;;;;;;2.55;1.38;;;;;;;21.50;51.73;96029.34;4974657;28;20202;-85
2022/05/27 08:41:09;;;;;;;1.50;1.30;;;;;;;21.46;51.99;96040.53;4975543;28;20231;-87
2022/05/27 08:43:50;;;;;;;3.03;1.30;;;;;;;21.40;52.07;96041.47;4977595;28;20232;-87
2022/05/27 08:46:24;;;;;;;2.35;1.42;;;;;;;21.23;52.77;96039.56;4975454;28;20203;-86
2022/05/27 08:48:57;;;;;;;4.00;1.30;;;;;;;21.30;52.47;96040.25;4980378;28;20610;-86
2022/05/27 08:51:28;;;;;;;2.30;1.15;;;;;;;21.15;52.42;96041.75;4985933;28;20204;-86
2022/05/27 08:54:03;;;;;;;1.52;1.40;;;;;;;21.27;51.63;96040.72;4987049;28;20235;-87
2022/05/27 08:59:31;;;;;;;2.20;1.20;;;;;;;21.85;50.58;96031.03;4980024;28;20207;-85
2022/05/27 09:02:02;;;;;;;1.70;1.33;;;;;;;21.77;50.58;96024.31;4976392;28;20251;-87
2022/05/27 09:04:34;;;;;;;2.90;1.30;;;;;;;21.74;50.59;96031.88;4984625;28;20259;-87
2022/05/27 09:07:08;;;;;;;1.45;1.30;;;;;;;21.86;51.01;96028.16;4986801;28;20226;-87
2022/05/27 09:09:37;;;;;;;2.75;1.50;;;;;;;22.24;50.37;96027.50;4983855;28;20274;-87
2022/05/27 09:12:26;;;;;;;1.20;1.10;;;;;;;22.27;48.76;96018.38;4982027;28;20208;-86
2022/05/27 09:14:59;;;;;;;1.85;1.40;;;;;;;22.43;49.05;96020.19;4981095;28;20220;-87
2022/05/27 09:17:38;;;;;;;2.75;1.38;;;;;;;22.69;50.42;96013.47;4982578;28;20276;-86
2022/05/27 09:20:17;;;;;;;2.53;1.30;;;;;;;22.96;48.28;96003.06;4981422;28;20649;-86
2022/05/27 09:22:56;;;;;;;1.33;1.23;;;;;;;23.19;48.49;96015.19;4990856;28;20239;-86
2022/05/27 09:25:29;;;;;;;1.70;1.20;;;;;;;22.78;49.56;96009.41;4984177;28;20208;-87
2022/05/27 09:28:06;;;;;;;5.22;1.38;;;;;;;22.14;49.92;96016.84;4984335;28;20223;-85
2022/05/27 09:30:35;;;;;;;2.47;1.58;;;;;;;21.93;50.11;96007.84;4983245;28;20231;-86
2022/05/27 09:33:04;;;;;;;3.03;2.47;;;;;;;21.74;50.92;96018.78;4967796;28;20267;-86
2022/05/27 09:35:36;;;;;;;2.08;1.50;;;;;;;22.04;50.14;96027.19;4983230;28;20204;-86
2022/05/27 09:38:06;;;;;;;1.30;1.20;;;;;;;22.32;49.22;96013.97;4983658;28;20200;-87
2022/05/27 09:54:29;;;;;;;1.13;1.02;;;;;;;23.14;47.16;95996.72;4799746;29;20233;-88
2022/05/27 09:57:02;;;;;;;2.28;1.10;;;;;;;23.08;48.19;95999.31;4913898;28;20676;-87
2022/05/27 09:59:36;;;;;;;2.83;1.40;;;;;;;22.54;48.22;96000.13;4955251;28;20216;-87
2022/05/27 10:02:19;;;;;;;1.67;1.40;;;;;;;22.28;49.41;95997.16;4956218;29;20212;-87
2022/05/27 10:04:53;;;;;;;1.30;1.20;;;;;;;22.28;49.91;95997.16;4952961;28;20220;-87
2022/05/27 10:07:42;;;;;;;2.70;1.30;;;;;;;22.58;48.63;95993.34;4955015;29;20259;-87
2022/05/27 10:10:26;;;;;;;2.17;1.23;;;;;;;22.98;47.73;95987.88;4943846;29;20624;-86
2022/05/27 10:12:55;;;;;;;2.75;1.40;;;;;;;23.25;47.15;95986.09;4952393;28;20310;-87
2022/05/27 10:15:32;;;;;;;1.25;1.10;;;;;;;23.46;46.93;95988.94;4952722;28;20201;-86
2022/05/27 10:18:24;;;;;;;1.30;1.20;;;;;;;23.58;46.47;95981.72;4953286;29;20196;-87
2022/05/27 10:20:53;;;;;;;1.00;0.90;;;;;;;23.86;46.13;95981.44;4938810;29;20434;-85
2022/05/27 10:23:26;;;;;;;4.28;1.30;;;;;;;24.00;45.21;95977.38;4951391;28;20243;-86
2022/05/27 10:25:52;;;;;;;1.92;1.10;;;;;;;24.02;44.72;95977.91;4953673;29;20217;-86
2022/05/27 10:28:30;;;;;;;2.63;1.30;;;;;;;24.15;44.73;95968.78;4953329;29;20208;-86
2022/05/27 10:31:00;;;;;;;4.82;1.52;;;;;;;24.26;44.88;95972.31;4953750;28;20236;-86
2022/05/27 10:33:39;;;;;;;1.77;1.25;;;;;;;23.90;45.00;95969.38;4952600;28;20252;-86
2022/05/27 10:36:31;;;;;;;2.03;1.45;;;;;;;24.05;45.41;95963.47;4945971;29;20574;-86
2022/05/27 10:39:03;;;;;;;2.03;1.17;;;;;;;24.42;44.70;95968.75;4951293;29;20748;-86
2022/05/27 10:41:43;;;;;;;1.40;1.15;;;;;;;24.55;44.23;95968.28;4953796;29;20201;-86
2022/05/27 10:47:29;;;;;;;2.55;1.42;;;;;;;24.63;44.09;95959.91;4949411;28;20561;-86
2022/05/27 10:50:20;;;;;;;1.38;1.25;;;;;;;24.75;43.77;95955.22;4956205;28;20660;-85
2022/05/27 10:53:01;;;;;;;1.85;1.10;;;;;;;24.68;44.83;95951.25;4957195;28;20283;-86
2022/05/27 10:55:38;;;;;;;1.27;1.17;;;;;;;24.31;45.16;95948.66;4953977;28;20204;-86
2022/05/27 11:04:47;;;;;;;13.93;12.52;;;;;;;23.96;45.39;95946.56;4946944;28;20235;-86
2022/05/27 11:07:27;;;;;;;1.90;1.33;;;;;;;23.51;45.72;95946.91;4946669;28;20209;-85
2022/05/27 11:10:08;;;;;;;1.88;1.30;;;;;;;23.41;46.95;95943.16;4950065;28;20209;-85
2022/05/27 11:15:40;;;;;;;3.03;1.10;;;;;;;23.35;46.98;95938.88;4956530;28;20256;-85
2022/05/27 11:18:18;;;;;;;1.42;1.33;;;;;;;23.34;46.32;95941.75;4955777;29;20710;-86
2022/05/27 11:21:02;;;;;;;1.35;1.13;;;;;;;23.74;44.98;95947.44;4955737;29;20200;-86
2022/05/27 11:23:46;;;;;;;2.20;1.10;;;;;;;24.22;44.16;95934.38;4956737;28;20736;-87
2022/05/27 11:26:19;;;;;;;1.20;1.10;;;;;;;24.30;45.93;95928.66;4955123;29;20201;-86
2022/05/27 11:29:03;;;;;;;2.50;1.05;;;;;;;24.45;45.15;95919.00;4957093;29;20213;-86
2022/05/27 11:31:37;;;;;;;3.25;1.13;;;;;;;24.78;44.30;95925.75;4956589;29;20616;-88
2022/05/27 11:34:15;;;;;;;2.40;1.50;;;;;;;24.61;44.96;95912.00;4949637;28;20236;-87
2022/05/27 11:37:07;;;;;;;3.38;3.08;;;;;;;24.47;46.25;95902.16;4954847;29;20208;-86
2022/05/27 11:39:50;;;;;;;3.40;1.70;;;;;;;24.60;44.24;95912.25;4957467;28;20205;-87
2022/05/27 11:42:32;;;;;;;1.58;1.20;;;;;;;24.19;44.88;95903.31;4953210;28;20553;-86
2022/05/27 11:45:08;;;;;;;1.80;1.30;;;;;;;23.88;45.00;95900.44;4955300;28;20252;-87
2022/05/27 11:48:03;;;;;;;1.60;1.23;;;;;;;23.83;46.69;95895.19;4958446;29;20201;-87
2022/05/27 11:50:44;;;;;;;1.85;1.40;;;;;;;23.90;46.49;95892.31;4956953;29;20207;-86
2022/05/27 11:53:27;;;;;;;1.45;1.20;;;;;;;24.10;46.48;95892.44;4938267;28;20237;-86
2022/05/27 11:56:03;;;;;;;1.40;1.30;;;;;;;24.30;44.13;95889.97;4957869;28;20216;-86
2022/05/27 11:58:39;;;;;;;2.55;1.10;;;;;;;24.39;45.14;95895.56;4965425;28;20196;-87
2022/05/27 12:01:11;;;;;;;1.33;1.05;;;;;;;24.39;44.59;95879.75;4957707;28;20219;-87
2022/05/27 12:03:46;;;;;;;1.60;1.00;;;;;;;24.39;44.66;95883.19;4956386;28;20225;-87
2022/05/27 12:06:18;;;;;;;1.85;1.20;;;;;;;24.65;44.45;95875.38;4951717;29;20207;-87
2022/05/27 12:08:53;;;;;;;1.30;1.05;;;;;;;24.77;42.33;95863.59;4957775;29;20310;-87
2022/05/27 12:11:24;;;;;;;1.33;1.10;;;;;;;25.16;43.71;95865.81;4952461;29;20207;-86
2022/05/27 12:13:54;;;;;;;1.80;1.10;;;;;;;25.30;44.87;95858.97;4955430;28;20233;-87
2022/05/27 12:16:24;;;;;;;1.30;1.20;;;;;;;24.94;44.22;95865.22;4957457;29;20212;-88
2022/05/27 12:18:56;;;;;;;3.08;1.00;;;;;;;25.07;44.05;95860.25;4956762;28;20212;-88
2022/05/27 12:21:27;;;;;;;1.85;1.23;;;;;;;25.10;42.93;95848.41;4957152;29;20212;-87
2022/05/27 12:23:57;;;;;;;1.23;1.13;;;;;;;25.19;42.66;95859.22;4954950;28;20235;-87
2022/05/27 12:26:31;;;;;;;4.82;1.30;;;;;;;25.18;42.01;95853.16;4958439;29;20208;-87
2022/05/27 12:29:01;;;;;;;2.45;1.08;;;;;;;24.88;43.25;95848.59;4955483;29;20217;-88
2022/05/27 12:31:31;;;;;;;2.70;1.40;;;;;;;25.16;42.90;95844.72;4956988;29;20209;-88